Portada
METAR-TAF:

METAR-TAF

Aeroports :

Normanton, Austràlia

latitud: 17-41-06S, longitud: 141-04-12E, altitud: 22 m

Observació

L'informe es va fer fa 29 minuts, a les 04:00 UTC
Vent 5 kt del Nord-Oest, variant entre Oest/Nord-Oest i Nord
Temperatura 35°C
Humitat 28%
Pressió 1010 hPa
Visibilitat 10 km o més

METAR: YNTN 300400Z AUTO 31005KT 290V360 9999 // NCD 35/14 Q1010

Hora: 14:29 (04:29 UTC)


TAF: manca

Observacions i pronòstics meteorològics de més de 4000 aeroports (METAR i TAF).

Les estacions disponibles són els punts grocs i vermells al mapa.

Posi el ratolí al punt desitjat per veure el nom de l'estació.

Feu clic per veure les observacions i els pronòstics meteorològics.

Per canviar el mapa: feu clic els botons verds amb una creu de color negre per apropar; al botó verd amb un guió per allunyar la imatge; o en les fletxes verdes per a mapes adjacents.


METAR-TAF: